THY84 LTFM-RPLL
Flight info
| Callsign | THY84 |
|---|---|
| Flight time | N/A |
| Altitude | 31000 |
| Route | EKAWE UT643 GAKSU UT310 SIN UN644 KARDE UL851 TBN UM11 REBLO/N0492F330 M11 MATAL DCT ERLEV M11 RODAR A909 LEMOD N644 REGET G325 HANGU L509 NONIB T400 LA/N0491F350 T400 SULOM M890 LKN A201 LSO A599 LINSO/K0924S1070 A599 TAVAB/K0915S1130 A599 POU B330 TAMOT/N0493F370 B330 BIGEX DCT POVAM DCT NOPER V642 NOMAN A461 CAB CAB1D |
| Aircraft | B77W/H-SDE1E2E3FGHIJ2J3J4J5M1RWXY/LB1D1 |
Departure
| Time | 2026-05-04 02:44 |
|---|---|
| Airport | İstanbul Airport (LTFM) |
Arrival
| Time | N/A |
|---|---|
| Airport | Ninoy Aquino International Airport (RPLL) |
| Time | Latitude | Longitude | Altitude | Speed | Heading |
|---|---|---|---|---|---|
| 2026-05-04 02:22 | 41.26684 | 28.75052 | 334 ft | 0 kts | 287° |
| 2026-05-04 02:36 | 41.26682 | 28.75060 | 333 ft | 4 kts | 287° |
| 2026-05-04 02:36 | 41.26674 | 28.75094 | 333 ft | 2 kts | 287° |
| 2026-05-04 02:36 | 41.26669 | 28.75122 | 333 ft | 4 kts | 261° |
| 2026-05-04 02:37 | 41.26680 | 28.75150 | 333 ft | 4 kts | 207° |
| 2026-05-04 02:37 | 41.26703 | 28.75155 | 333 ft | 4 kts | 179° |
| 2026-05-04 02:37 | 41.26721 | 28.75155 | 333 ft | 0 kts | 179° |
| 2026-05-04 02:41 | 41.26677 | 28.75156 | 333 ft | 13 kts | 179° |
| 2026-05-04 02:41 | 41.26624 | 28.75206 | 335 ft | 12 kts | 98° |
| 2026-05-04 02:41 | 41.26615 | 28.75359 | 337 ft | 16 kts | 116° |
| 2026-05-04 02:41 | 41.26559 | 28.75384 | 333 ft | 9 kts | 178° |
| 2026-05-04 02:42 | 41.26422 | 28.75387 | 334 ft | 32 kts | 179° |
| 2026-05-04 02:42 | 41.26261 | 28.75404 | 333 ft | 10 kts | 148° |
| 2026-05-04 02:42 | 41.26249 | 28.75489 | 339 ft | 10 kts | 89° |
| 2026-05-04 02:42 | 41.26250 | 28.75588 | 339 ft | 16 kts | 89° |
| 2026-05-04 02:43 | 41.26319 | 28.75663 | 337 ft | 21 kts | 3° |
| 2026-05-04 02:43 | 41.26538 | 28.75658 | 334 ft | 41 kts | 1° |
| 2026-05-04 02:43 | 41.26886 | 28.75655 | 335 ft | 58 kts | 359° |
| 2026-05-04 02:43 | 41.27475 | 28.75643 | 335 ft | 123 kts | 359° |
| 2026-05-04 02:44 | 41.28605 | 28.75629 | 455 ft | 190 kts | 0° |
| 2026-05-04 02:44 | 41.29951 | 28.75655 | 1601 ft | 188 kts | 4° |
| 2026-05-04 02:44 | 41.31155 | 28.76196 | 2492 ft | 191 kts | 38° |
| 2026-05-04 02:44 | 41.31952 | 28.77751 | 2642 ft | 215 kts | 55° |
| 2026-05-04 02:45 | 41.33005 | 28.79145 | 2856 ft | 219 kts | 22° |
| 2026-05-04 02:45 | 41.34448 | 28.79900 | 3294 ft | 228 kts | 24° |
| 2026-05-04 02:45 | 41.35885 | 28.80842 | 4012 ft | 231 kts | 26° |
| 2026-05-04 02:45 | 41.37324 | 28.81820 | 4799 ft | 232 kts | 27° |
| 2026-05-04 02:46 | 41.38856 | 28.82492 | 5343 ft | 239 kts | 2° |
| 2026-05-04 02:46 | 41.40575 | 28.82299 | 5560 ft | 259 kts | 357° |
| 2026-05-04 02:46 | 41.42454 | 28.82054 | 5791 ft | 283 kts | 358° |
| 2026-05-04 02:46 | 41.44509 | 28.81805 | 5982 ft | 310 kts | 357° |
| 2026-05-04 02:47 | 41.46688 | 28.81535 | 6628 ft | 318 kts | 357° |
| 2026-05-04 02:47 | 41.48904 | 28.81257 | 7436 ft | 322 kts | 357° |
| 2026-05-04 02:47 | 41.51109 | 28.80981 | 8267 ft | 326 kts | 356° |
| 2026-05-04 02:47 | 41.53392 | 28.80697 | 9074 ft | 330 kts | 356° |
| 2026-05-04 02:48 | 41.55696 | 28.80413 | 9872 ft | 335 kts | 356° |
| 2026-05-04 02:48 | 41.58035 | 28.80124 | 10551 ft | 341 kts | 356° |
| 2026-05-04 02:48 | 41.60401 | 28.80124 | 11065 ft | 343 kts | 12° |
| 2026-05-04 02:48 | 41.62651 | 28.81212 | 11712 ft | 347 kts | 28° |
| 2026-05-04 02:49 | 41.64622 | 28.83093 | 12519 ft | 351 kts | 39° |
| 2026-05-04 02:49 | 41.65873 | 28.84551 | 13003 ft | 353 kts | 39° |
| 2026-05-04 02:49 | 41.67741 | 28.86736 | 13701 ft | 358 kts | 39° |
| 2026-05-04 02:49 | 41.70258 | 28.89624 | 13994 ft | 362 kts | 39° |
| 2026-05-04 02:50 | 41.71532 | 28.91070 | 14007 ft | 362 kts | 39° |
| 2026-05-04 02:50 | 41.73337 | 28.93390 | 14005 ft | 362 kts | 50° |
| 2026-05-04 02:50 | 41.74565 | 28.96352 | 14361 ft | 369 kts | 63° |
| 2026-05-04 02:50 | 41.75604 | 28.99529 | 14983 ft | 373 kts | 63° |
| 2026-05-04 02:51 | 41.76678 | 29.02694 | 15754 ft | 373 kts | 63° |
| 2026-05-04 02:51 | 41.77761 | 29.05853 | 16520 ft | 374 kts | 63° |
| 2026-05-04 02:51 | 41.78856 | 29.09032 | 17214 ft | 377 kts | 63° |
| 2026-05-04 02:51 | 41.79960 | 29.12235 | 17891 ft | 380 kts | 63° |
| 2026-05-04 02:52 | 41.81073 | 29.15467 | 18496 ft | 383 kts | 63° |
| 2026-05-04 02:52 | 41.82193 | 29.18722 | 19079 ft | 387 kts | 63° |
| 2026-05-04 02:52 | 41.83321 | 29.22005 | 19633 ft | 390 kts | 64° |
| 2026-05-04 02:52 | 41.84461 | 29.25330 | 20160 ft | 394 kts | 64° |
| 2026-05-04 02:53 | 41.85609 | 29.28678 | 20711 ft | 397 kts | 64° |
| 2026-05-04 02:53 | 41.86766 | 29.32058 | 21264 ft | 400 kts | 64° |
| 2026-05-04 02:53 | 41.87929 | 29.35459 | 21837 ft | 403 kts | 64° |
| 2026-05-04 02:53 | 41.89101 | 29.38890 | 22344 ft | 406 kts | 65° |
| 2026-05-04 02:54 | 41.90288 | 29.42349 | 22861 ft | 410 kts | 63° |
| 2026-05-04 02:54 | 41.91789 | 29.45602 | 23308 ft | 414 kts | 51° |
| 2026-05-04 02:54 | 41.93734 | 29.48469 | 23773 ft | 417 kts | 48° |
| 2026-05-04 02:54 | 41.95704 | 29.51314 | 24184 ft | 420 kts | 49° |
| 2026-05-04 02:55 | 41.99606 | 29.57170 | 25023 ft | 424 kts | 50° |
| 2026-05-04 02:55 | 42.01557 | 29.60165 | 25448 ft | 426 kts | 50° |
| 2026-05-04 02:55 | 42.03518 | 29.63203 | 25823 ft | 426 kts | 53° |
| 2026-05-04 02:56 | 42.05064 | 29.66591 | 26020 ft | 430 kts | 69° |
| 2026-05-04 02:56 | 42.05844 | 29.70464 | 26355 ft | 433 kts | 82° |
| 2026-05-04 02:56 | 42.05932 | 29.74524 | 26775 ft | 435 kts | 93° |
| 2026-05-04 02:56 | 42.05618 | 29.78564 | 27207 ft | 437 kts | 95° |
| 2026-05-04 02:57 | 42.05274 | 29.82655 | 27569 ft | 439 kts | 95° |
| 2026-05-04 02:57 | 42.04943 | 29.86743 | 27893 ft | 442 kts | 95° |
| 2026-05-04 02:57 | 42.04630 | 29.90874 | 28241 ft | 444 kts | 94° |
| 2026-05-04 02:57 | 42.04330 | 29.95007 | 28594 ft | 446 kts | 94° |
| 2026-05-04 02:58 | 42.04036 | 29.99179 | 28996 ft | 446 kts | 94° |
| 2026-05-04 02:58 | 42.03744 | 30.03328 | 29333 ft | 447 kts | 94° |
| 2026-05-04 02:58 | 42.03445 | 30.07512 | 29598 ft | 449 kts | 95° |
| 2026-05-04 02:58 | 42.02878 | 30.11644 | 29752 ft | 453 kts | 106° |
| 2026-05-04 02:59 | 42.01527 | 30.15503 | 29930 ft | 461 kts | 121° |
| 2026-05-04 02:59 | 41.99590 | 30.18934 | 30222 ft | 461 kts | 125° |
| 2026-05-04 02:59 | 41.97625 | 30.22333 | 30529 ft | 460 kts | 124° |
| 2026-05-04 02:59 | 41.95681 | 30.25763 | 30885 ft | 458 kts | 124° |
| 2026-05-04 03:00 | 41.93792 | 30.29140 | 30903 ft | 461 kts | 123° |
| 2026-05-04 03:00 | 41.89976 | 30.36025 | 30940 ft | 456 kts | 123° |
| 2026-05-04 03:01 | 41.86201 | 30.42837 | 30955 ft | 454 kts | 123° |
| 2026-05-04 03:01 | 41.82426 | 30.49630 | 30967 ft | 454 kts | 123° |
| 2026-05-04 03:02 | 41.78638 | 30.56433 | 30942 ft | 453 kts | 122° |
| 2026-05-04 03:02 | 41.77143 | 30.60075 | 30943 ft | 444 kts | 106° |
| 2026-05-04 03:02 | 41.76475 | 30.64084 | 30942 ft | 442 kts | 94° |
| 2026-05-04 03:03 | 41.76997 | 30.72247 | 30949 ft | 442 kts | 76° |
| 2026-05-04 03:03 | 41.78632 | 30.80222 | 30948 ft | 446 kts | 75° |
| 2026-05-04 03:04 | 41.80232 | 30.88265 | 30925 ft | 448 kts | 77° |
| 2026-05-04 03:04 | 41.81771 | 30.96350 | 30927 ft | 446 kts | 77° |
| 2026-05-04 03:05 | 41.83282 | 31.04376 | 30917 ft | 443 kts | 77° |
| 2026-05-04 03:05 | 41.84831 | 31.12354 | 30923 ft | 441 kts | 75° |
| 2026-05-04 03:06 | 41.86551 | 31.20250 | 30922 ft | 440 kts | 75° |
| 2026-05-04 03:06 | 41.88266 | 31.28109 | 30899 ft | 440 kts | 75° |
| 2026-05-04 03:07 | 41.89959 | 31.36011 | 30926 ft | 440 kts | 75° |
| 2026-05-04 03:07 | 41.91636 | 31.43916 | 30914 ft | 440 kts | 75° |
| 2026-05-04 03:08 | 41.93307 | 31.51813 | 30903 ft | 439 kts | 75° |
| 2026-05-04 03:08 | 41.94970 | 31.59705 | 30904 ft | 439 kts | 75° |
| 2026-05-04 03:09 | 41.96605 | 31.67612 | 30894 ft | 439 kts | 76° |
| 2026-05-04 03:09 | 41.98214 | 31.75466 | 30894 ft | 438 kts | 76° |
| 2026-05-04 03:10 | 41.99834 | 31.83376 | 30890 ft | 438 kts | 76° |
| 2026-05-04 03:10 | 42.01450 | 31.91283 | 30890 ft | 438 kts | 76° |
| 2026-05-04 03:11 | 42.03070 | 31.99171 | 30881 ft | 438 kts | 76° |
| 2026-05-04 03:11 | 42.04684 | 32.07047 | 30883 ft | 437 kts | 76° |
| 2026-05-04 03:12 | 42.06295 | 32.14950 | 30867 ft | 437 kts | 76° |
| 2026-05-04 03:12 | 42.07894 | 32.22821 | 30866 ft | 436 kts | 76° |
| 2026-05-04 03:13 | 42.09516 | 32.30705 | 30862 ft | 437 kts | 74° |
| 2026-05-04 03:13 | 42.11334 | 32.38459 | 30859 ft | 437 kts | 73° |
| 2026-05-04 03:14 | 42.13173 | 32.46272 | 30845 ft | 437 kts | 74° |
| 2026-05-04 03:14 | 42.14969 | 32.54070 | 30854 ft | 437 kts | 74° |
| 2026-05-04 03:15 | 42.16387 | 32.62033 | 30847 ft | 436 kts | 82° |
| 2026-05-04 03:15 | 42.16855 | 32.70160 | 30846 ft | 436 kts | 88° |
| 2026-05-04 03:16 | 42.17014 | 32.78329 | 30840 ft | 436 kts | 88° |
| 2026-05-04 03:16 | 42.17184 | 32.86500 | 30837 ft | 436 kts | 88° |
| 2026-05-04 03:17 | 42.17360 | 32.94683 | 30826 ft | 436 kts | 88° |
| 2026-05-04 03:17 | 42.17533 | 33.02854 | 30832 ft | 436 kts | 88° |
| 2026-05-04 03:18 | 42.17700 | 33.11025 | 30828 ft | 436 kts | 88° |
| 2026-05-04 03:18 | 42.17862 | 33.19199 | 30822 ft | 436 kts | 88° |
| 2026-05-04 03:19 | 42.18017 | 33.27383 | 30819 ft | 436 kts | 88° |
| 2026-05-04 03:19 | 42.18166 | 33.35508 | 30827 ft | 436 kts | 88° |
| 2026-05-04 03:20 | 42.18310 | 33.43695 | 30816 ft | 437 kts | 88° |
| 2026-05-04 03:20 | 42.18449 | 33.51889 | 30786 ft | 437 kts | 88° |
| 2026-05-04 03:21 | 42.18582 | 33.60083 | 30796 ft | 437 kts | 88° |
| 2026-05-04 03:21 | 42.18709 | 33.68288 | 30812 ft | 438 kts | 88° |
| 2026-05-04 03:22 | 42.18831 | 33.76497 | 30803 ft | 438 kts | 88° |
| 2026-05-04 03:22 | 42.18544 | 33.84728 | 30796 ft | 441 kts | 97° |
| 2026-05-04 03:23 | 42.17486 | 33.92887 | 30797 ft | 442 kts | 98° |
| 2026-05-04 03:23 | 42.16452 | 34.01060 | 30803 ft | 443 kts | 97° |
| 2026-05-04 03:24 | 42.15434 | 34.09193 | 30804 ft | 443 kts | 97° |
| 2026-05-04 03:24 | 42.14403 | 34.17391 | 30799 ft | 443 kts | 98° |
| 2026-05-04 03:25 | 42.13364 | 34.25591 | 30798 ft | 443 kts | 98° |
| 2026-05-04 03:25 | 42.12321 | 34.33772 | 30773 ft | 443 kts | 98° |
| 2026-05-04 03:26 | 42.11271 | 34.41965 | 30784 ft | 444 kts | 98° |
| 2026-05-04 03:26 | 42.10183 | 34.50107 | 30804 ft | 445 kts | 99° |
| 2026-05-04 03:27 | 42.09038 | 34.58319 | 30791 ft | 447 kts | 100° |
| 2026-05-04 03:27 | 42.07888 | 34.66566 | 30794 ft | 449 kts | 99° |
| 2026-05-04 03:28 | 42.06737 | 34.74829 | 30787 ft | 450 kts | 100° |
| 2026-05-04 03:28 | 42.05579 | 34.83103 | 30797 ft | 450 kts | 100° |
| 2026-05-04 03:29 | 42.04446 | 34.91379 | 30780 ft | 451 kts | 100° |
| 2026-05-04 03:29 | 42.03352 | 34.99718 | 30793 ft | 453 kts | 100° |
| 2026-05-04 03:30 | 42.02281 | 35.08032 | 30790 ft | 454 kts | 98° |
| 2026-05-04 03:30 | 42.01796 | 35.16509 | 30794 ft | 455 kts | 94° |
| 2026-05-04 03:31 | 42.01372 | 35.25015 | 30755 ft | 456 kts | 95° |
| 2026-05-04 03:31 | 42.00924 | 35.33542 | 30784 ft | 459 kts | 96° |
| 2026-05-04 03:32 | 42.00456 | 35.42145 | 30789 ft | 461 kts | 96° |
| 2026-05-04 03:32 | 41.99980 | 35.50761 | 30785 ft | 463 kts | 96° |
| 2026-05-04 03:33 | 41.99496 | 35.59404 | 30783 ft | 463 kts | 96° |
| 2026-05-04 03:33 | 41.99010 | 35.67985 | 30779 ft | 463 kts | 96° |
| 2026-05-04 03:34 | 41.98514 | 35.76606 | 30778 ft | 463 kts | 97° |
| 2026-05-04 03:34 | 41.98011 | 35.85256 | 30777 ft | 463 kts | 97° |
| 2026-05-04 03:35 | 41.97501 | 35.93901 | 30756 ft | 463 kts | 97° |
| 2026-05-04 03:35 | 41.97073 | 36.01073 | 30762 ft | 464 kts | 97° |
| 2026-05-04 03:36 | 41.96551 | 36.09728 | 30783 ft | 465 kts | 97° |
| 2026-05-04 03:36 | 41.96020 | 36.18395 | 30783 ft | 467 kts | 97° |
| 2026-05-04 03:37 | 41.95479 | 36.27131 | 30782 ft | 469 kts | 97° |
| 2026-05-04 03:37 | 41.94932 | 36.35867 | 30774 ft | 469 kts | 97° |
| 2026-05-04 03:38 | 41.94383 | 36.44537 | 30777 ft | 468 kts | 97° |
| 2026-05-04 03:38 | 41.93824 | 36.53244 | 30777 ft | 467 kts | 97° |
| 2026-05-04 03:39 | 41.93259 | 36.61939 | 30777 ft | 467 kts | 98° |
| 2026-05-04 03:39 | 41.92689 | 36.70606 | 30776 ft | 466 kts | 97° |
| 2026-05-04 03:40 | 41.92113 | 36.79287 | 30772 ft | 468 kts | 98° |
| 2026-05-04 03:40 | 41.91527 | 36.88001 | 30784 ft | 469 kts | 98° |
| 2026-05-04 03:41 | 41.90932 | 36.96757 | 30783 ft | 471 kts | 98° |
| 2026-05-04 03:41 | 41.89832 | 37.05362 | 30779 ft | 467 kts | 108° |
| 2026-05-04 03:42 | 41.87655 | 37.13488 | 30779 ft | 465 kts | 116° |
| 2026-05-04 03:42 | 41.85108 | 37.21431 | 30785 ft | 465 kts | 116° |
| 2026-05-04 03:43 | 41.82565 | 37.29428 | 30788 ft | 464 kts | 115° |
| 2026-05-04 03:43 | 41.80050 | 37.37388 | 30791 ft | 464 kts | 115° |
| 2026-05-04 03:44 | 41.77533 | 37.45349 | 30782 ft | 464 kts | 116° |
| 2026-05-04 03:44 | 41.75007 | 37.53306 | 30789 ft | 464 kts | 116° |
| 2026-05-04 03:45 | 41.72485 | 37.61231 | 30793 ft | 464 kts | 116° |
| 2026-05-04 03:45 | 41.69945 | 37.69182 | 30791 ft | 464 kts | 116° |
| 2026-05-04 03:46 | 41.67390 | 37.77124 | 30803 ft | 464 kts | 116° |
| 2026-05-04 03:46 | 41.64849 | 37.85003 | 30803 ft | 465 kts | 116° |
| 2026-05-04 03:47 | 41.62279 | 37.92954 | 30797 ft | 466 kts | 116° |
| 2026-05-04 03:47 | 41.59702 | 38.00907 | 30776 ft | 467 kts | 116° |
| 2026-05-04 03:48 | 41.57108 | 38.08891 | 30788 ft | 467 kts | 116° |
| 2026-05-04 03:48 | 41.54523 | 38.16822 | 30794 ft | 468 kts | 116° |
| 2026-05-04 03:49 | 41.51918 | 38.24789 | 30795 ft | 468 kts | 116° |
| 2026-05-04 03:49 | 41.49307 | 38.32755 | 30789 ft | 468 kts | 117° |
| 2026-05-04 03:50 | 41.46697 | 38.40694 | 30786 ft | 468 kts | 117° |
| 2026-05-04 03:50 | 41.44070 | 38.48662 | 30776 ft | 468 kts | 117° |
| 2026-05-04 03:51 | 41.41442 | 38.56608 | 30775 ft | 469 kts | 117° |
| 2026-05-04 03:51 | 41.38802 | 38.64570 | 30792 ft | 471 kts | 117° |
| 2026-05-04 03:52 | 41.36148 | 38.72554 | 30800 ft | 472 kts | 117° |
| 2026-05-04 03:52 | 41.33502 | 38.80495 | 30800 ft | 473 kts | 117° |
| 2026-05-04 03:53 | 41.30872 | 38.88512 | 30790 ft | 473 kts | 117° |
| 2026-05-04 03:53 | 41.28251 | 38.96525 | 30803 ft | 472 kts | 117° |
| 2026-05-04 03:54 | 41.25623 | 39.04518 | 30802 ft | 472 kts | 117° |
| 2026-05-04 03:54 | 41.22991 | 39.12492 | 30786 ft | 472 kts | 117° |
| 2026-05-04 03:55 | 41.20327 | 39.20468 | 30806 ft | 471 kts | 118° |
| 2026-05-04 03:55 | 41.17562 | 39.28373 | 30805 ft | 472 kts | 118° |
| 2026-05-04 03:56 | 41.14785 | 39.36251 | 30811 ft | 472 kts | 118° |
| 2026-05-04 03:56 | 41.12013 | 39.44146 | 30808 ft | 473 kts | 118° |
| 2026-05-04 03:57 | 41.09235 | 39.52056 | 30805 ft | 473 kts | 118° |
| 2026-05-04 03:57 | 41.06455 | 39.59948 | 30804 ft | 473 kts | 118° |
| 2026-05-04 03:58 | 41.02276 | 39.71775 | 30792 ft | 473 kts | 118° |
| 2026-05-04 03:58 | 41.00037 | 39.80007 | 30796 ft | 479 kts | 107° |
| 2026-05-04 03:59 | 40.99166 | 39.88729 | 30805 ft | 486 kts | 95° |
| 2026-05-04 03:59 | 40.99024 | 39.97751 | 30800 ft | 488 kts | 95° |
| 2026-05-04 04:00 | 40.98849 | 40.06739 | 30790 ft | 488 kts | 96° |
| 2026-05-04 04:00 | 40.98624 | 40.15661 | 30787 ft | 489 kts | 95° |
| 2026-05-04 04:01 | 40.98387 | 40.24685 | 30790 ft | 489 kts | 95° |
| 2026-05-04 04:01 | 40.98143 | 40.33666 | 30788 ft | 490 kts | 95° |
| 2026-05-04 04:02 | 40.97894 | 40.42673 | 30788 ft | 490 kts | 96° |
| 2026-05-04 04:02 | 40.97632 | 40.51708 | 30778 ft | 490 kts | 95° |
| 2026-05-04 04:03 | 40.97373 | 40.60708 | 30776 ft | 490 kts | 96° |
| 2026-05-04 04:03 | 40.97102 | 40.69713 | 30786 ft | 490 kts | 96° |
| 2026-05-04 04:04 | 40.96825 | 40.78722 | 30772 ft | 489 kts | 96° |
| 2026-05-04 04:04 | 40.96543 | 40.87650 | 30759 ft | 489 kts | 96° |
| 2026-05-04 04:05 | 40.96249 | 40.96633 | 30775 ft | 489 kts | 96° |
| 2026-05-04 04:05 | 40.95944 | 41.05641 | 30781 ft | 490 kts | 96° |
| 2026-05-04 04:06 | 40.95633 | 41.14647 | 30783 ft | 491 kts | 96° |
| 2026-05-04 04:06 | 40.95312 | 41.23679 | 30757 ft | 491 kts | 96° |
| 2026-05-04 04:07 | 40.94992 | 41.32702 | 30742 ft | 490 kts | 96° |
| 2026-05-04 04:07 | 40.94661 | 41.41715 | 30802 ft | 490 kts | 96° |
| 2026-05-04 04:08 | 40.94318 | 41.50754 | 30761 ft | 493 kts | 96° |
| 2026-05-04 04:08 | 40.93972 | 41.59835 | 30772 ft | 494 kts | 96° |
| 2026-05-04 04:09 | 40.93620 | 41.68874 | 30756 ft | 495 kts | 96° |
| 2026-05-04 04:09 | 40.93257 | 41.77949 | 30744 ft | 495 kts | 96° |
| 2026-05-04 04:10 | 40.92888 | 41.87030 | 30775 ft | 494 kts | 96° |
| 2026-05-04 04:10 | 40.92512 | 41.96125 | 30784 ft | 493 kts | 97° |
| 2026-05-04 04:11 | 40.92129 | 42.05156 | 30791 ft | 492 kts | 97° |
| 2026-05-04 04:11 | 40.91736 | 42.14224 | 31107 ft | 496 kts | 97° |
| 2026-05-04 04:12 | 40.91538 | 42.18767 | 31433 ft | 494 kts | 97° |
| 2026-05-04 04:12 | 40.91339 | 42.23298 | 31774 ft | 493 kts | 97° |
| 2026-05-04 04:12 | 40.91139 | 42.27819 | 32131 ft | 492 kts | 97° |
| 2026-05-04 04:12 | 40.90938 | 42.32331 | 32400 ft | 491 kts | 97° |
| 2026-05-04 04:13 | 40.90734 | 42.36832 | 32730 ft | 489 kts | 97° |
| 2026-05-04 04:13 | 40.90531 | 42.41272 | 32784 ft | 491 kts | 97° |
| 2026-05-04 04:13 | 40.90113 | 42.50292 | 32852 ft | 491 kts | 97° |
| 2026-05-04 04:14 | 40.89691 | 42.59303 | 32871 ft | 492 kts | 97° |
| 2026-05-04 04:14 | 40.89257 | 42.68369 | 32878 ft | 494 kts | 97° |
| 2026-05-04 04:15 | 40.88815 | 42.77464 | 32889 ft | 496 kts | 97° |
| 2026-05-04 04:15 | 40.88368 | 42.86516 | 32871 ft | 496 kts | 97° |
| 2026-05-04 04:16 | 40.87913 | 42.95607 | 32873 ft | 495 kts | 98° |
| 2026-05-04 04:16 | 40.87453 | 43.04654 | 32881 ft | 495 kts | 98° |
| 2026-05-04 04:17 | 40.86983 | 43.13734 | 32902 ft | 495 kts | 98° |
| 2026-05-04 04:17 | 40.86506 | 43.22823 | 32907 ft | 495 kts | 98° |
| 2026-05-04 04:18 | 40.86022 | 43.31898 | 32901 ft | 495 kts | 98° |
| 2026-05-04 04:18 | 40.85531 | 43.40981 | 32897 ft | 495 kts | 98° |
| 2026-05-04 04:19 | 40.85033 | 43.50051 | 32899 ft | 495 kts | 98° |
| 2026-05-04 04:19 | 40.84531 | 43.59082 | 32907 ft | 495 kts | 98° |
| 2026-05-04 04:20 | 40.84021 | 43.68136 | 32909 ft | 495 kts | 98° |
| 2026-05-04 04:20 | 40.83674 | 43.77243 | 32888 ft | 496 kts | 96° |
| 2026-05-04 04:21 | 40.83400 | 43.86363 | 32906 ft | 497 kts | 97° |
| 2026-05-04 04:21 | 40.83097 | 43.95495 | 32902 ft | 498 kts | 96° |
| 2026-05-04 04:22 | 40.82787 | 44.04624 | 32910 ft | 498 kts | 97° |
| 2026-05-04 04:22 | 40.82471 | 44.13760 | 32927 ft | 498 kts | 96° |
| 2026-05-04 04:23 | 40.82203 | 44.21350 | 32910 ft | 498 kts | 97° |
| 2026-05-04 04:23 | 40.81821 | 44.31957 | 32921 ft | 498 kts | 97° |
| 2026-05-04 04:24 | 40.81542 | 44.39617 | 32931 ft | 498 kts | 97° |
| 2026-05-04 04:24 | 40.81196 | 44.48758 | 32930 ft | 497 kts | 97° |
| 2026-05-04 04:25 | 40.80849 | 44.57806 | 32931 ft | 497 kts | 97° |
| 2026-05-04 04:25 | 40.80496 | 44.66908 | 32936 ft | 495 kts | 97° |
| 2026-05-04 04:26 | 40.80129 | 44.75993 | 32936 ft | 495 kts | 97° |
| 2026-05-04 04:26 | 40.79756 | 44.85104 | 32926 ft | 498 kts | 97° |
| 2026-05-04 04:27 | 40.79379 | 44.94233 | 32943 ft | 498 kts | 97° |
| 2026-05-04 04:27 | 40.78995 | 45.03387 | 32914 ft | 500 kts | 97° |
| 2026-05-04 04:28 | 40.78603 | 45.12490 | 32921 ft | 500 kts | 97° |
| 2026-05-04 04:28 | 40.78196 | 45.21672 | 32936 ft | 501 kts | 97° |
| 2026-05-04 04:29 | 40.77784 | 45.30874 | 32920 ft | 502 kts | 97° |
| 2026-05-04 04:29 | 40.77368 | 45.40080 | 32933 ft | 502 kts | 97° |
| 2026-05-04 04:30 | 40.76946 | 45.49292 | 32898 ft | 503 kts | 97° |
| 2026-05-04 04:30 | 40.76873 | 45.58555 | 32923 ft | 506 kts | 94° |
| 2026-05-04 04:31 | 40.76949 | 45.67829 | 32951 ft | 506 kts | 93° |
| 2026-05-04 04:31 | 40.77015 | 45.77087 | 32922 ft | 507 kts | 94° |
| 2026-05-04 04:32 | 40.77052 | 45.86397 | 32935 ft | 508 kts | 94° |
| 2026-05-04 04:32 | 40.77072 | 45.95717 | 32911 ft | 508 kts | 94° |
| 2026-05-04 04:33 | 40.77081 | 46.05027 | 32941 ft | 507 kts | 94° |
| 2026-05-04 04:33 | 40.77086 | 46.14340 | 32951 ft | 508 kts | 94° |
| 2026-05-04 04:34 | 40.77085 | 46.23683 | 32937 ft | 509 kts | 94° |
| 2026-05-04 04:34 | 40.77076 | 46.33010 | 32939 ft | 509 kts | 94° |
| 2026-05-04 04:35 | 40.77060 | 46.42355 | 32928 ft | 509 kts | 95° |
| 2026-05-04 04:35 | 40.77034 | 46.51644 | 32940 ft | 509 kts | 95° |
| 2026-05-04 04:36 | 40.77002 | 46.61001 | 32949 ft | 510 kts | 95° |
| 2026-05-04 04:36 | 40.76962 | 46.70334 | 32964 ft | 510 kts | 95° |
| 2026-05-04 04:37 | 40.76860 | 46.89044 | 32941 ft | 510 kts | 96° |
| 2026-05-04 04:38 | 40.76798 | 46.98388 | 32970 ft | 510 kts | 96° |
| 2026-05-04 04:38 | 40.76727 | 47.07758 | 32974 ft | 511 kts | 96° |
| 2026-05-04 04:39 | 40.76649 | 47.17155 | 32978 ft | 512 kts | 96° |
| 2026-05-04 04:39 | 40.76564 | 47.26558 | 32984 ft | 513 kts | 96° |
| 2026-05-04 04:40 | 40.76470 | 47.35978 | 32982 ft | 514 kts | 96° |
| 2026-05-04 04:40 | 40.76371 | 47.45336 | 32992 ft | 514 kts | 96° |
| 2026-05-04 04:41 | 40.76260 | 47.54854 | 33023 ft | 515 kts | 96° |
| 2026-05-04 04:41 | 40.76144 | 47.64319 | 33049 ft | 518 kts | 96° |
| 2026-05-04 04:42 | 40.76017 | 47.73839 | 33026 ft | 518 kts | 96° |
| 2026-05-04 04:42 | 40.75886 | 47.83259 | 33027 ft | 516 kts | 96° |
| 2026-05-04 04:43 | 40.75747 | 47.92728 | 33016 ft | 516 kts | 96° |
| 2026-05-04 04:43 | 40.75598 | 48.02188 | 33024 ft | 515 kts | 96° |
| 2026-05-04 04:44 | 40.75443 | 48.11631 | 33008 ft | 515 kts | 96° |
| 2026-05-04 04:44 | 40.75280 | 48.21076 | 32962 ft | 515 kts | 96° |
| 2026-05-04 04:45 | 40.75110 | 48.30516 | 32991 ft | 515 kts | 95° |
| 2026-05-04 04:47 | 40.74451 | 48.63540 | 32984 ft | 517 kts | 95° |
| 2026-05-04 04:47 | 40.74244 | 48.72996 | 32985 ft | 514 kts | 94° |
| 2026-05-04 04:48 | 40.74037 | 48.82397 | 32954 ft | 511 kts | 94° |
| 2026-05-04 04:49 | 40.73475 | 49.05728 | 32967 ft | 509 kts | 94° |
| 2026-05-04 04:49 | 40.73239 | 49.15068 | 32979 ft | 510 kts | 94° |
| 2026-05-04 04:50 | 40.72963 | 49.24417 | 32970 ft | 510 kts | 97° |
| 2026-05-04 04:50 | 40.71970 | 49.33574 | 32980 ft | 508 kts | 102° |
| 2026-05-04 04:51 | 40.70828 | 49.42780 | 32987 ft | 510 kts | 102° |
| 2026-05-04 04:51 | 40.69741 | 49.52014 | 32991 ft | 511 kts | 102° |
| 2026-05-04 04:52 | 40.68629 | 49.61286 | 32989 ft | 512 kts | 102° |
| 2026-05-04 04:52 | 40.67497 | 49.70549 | 32975 ft | 512 kts | 102° |
| 2026-05-04 04:53 | 40.66358 | 49.79826 | 32976 ft | 512 kts | 102° |
| 2026-05-04 04:53 | 40.65218 | 49.89079 | 32973 ft | 512 kts | 102° |
| 2026-05-04 04:54 | 40.64070 | 49.98333 | 32974 ft | 511 kts | 102° |
| 2026-05-04 04:54 | 40.62918 | 50.07564 | 32954 ft | 511 kts | 102° |
| 2026-05-04 04:55 | 40.61757 | 50.16794 | 32974 ft | 511 kts | 102° |
| 2026-05-04 04:55 | 40.60589 | 50.26019 | 32978 ft | 511 kts | 102° |
| 2026-05-04 04:56 | 40.59421 | 50.35186 | 32979 ft | 510 kts | 102° |
| 2026-05-04 04:56 | 40.58240 | 50.44394 | 32979 ft | 510 kts | 102° |
| 2026-05-04 04:57 | 40.57050 | 50.53616 | 32989 ft | 511 kts | 102° |
| 2026-05-04 04:57 | 40.55853 | 50.62825 | 32992 ft | 511 kts | 102° |
| 2026-05-04 04:58 | 40.54656 | 50.71983 | 32996 ft | 511 kts | 102° |
| 2026-05-04 04:58 | 40.53444 | 50.81199 | 32994 ft | 511 kts | 102° |
| 2026-05-04 04:59 | 40.52226 | 50.90402 | 32995 ft | 512 kts | 102° |
| 2026-05-04 04:59 | 40.51258 | 50.99699 | 33007 ft | 514 kts | 99° |
| 2026-05-04 05:00 | 40.50452 | 51.09042 | 32991 ft | 515 kts | 99° |
| 2026-05-04 05:01 | 40.49197 | 51.23086 | 33008 ft | 516 kts | 99° |
| 2026-05-04 05:01 | 40.48332 | 51.32439 | 32994 ft | 515 kts | 99° |
| 2026-05-04 05:02 | 40.47463 | 51.41769 | 32995 ft | 515 kts | 99° |
| 2026-05-04 05:02 | 40.46526 | 51.51086 | 32986 ft | 513 kts | 103° |
| 2026-05-04 05:03 | 40.44898 | 51.60183 | 32991 ft | 511 kts | 107° |
| 2026-05-04 05:04 | 40.41480 | 51.78276 | 32993 ft | 514 kts | 106° |
| 2026-05-04 05:04 | 40.39787 | 51.87403 | 32996 ft | 515 kts | 106° |
| 2026-05-04 05:06 | 40.32923 | 52.24022 | 32993 ft | 516 kts | 107° |
| 2026-05-04 05:07 | 40.31192 | 52.33140 | 32988 ft | 515 kts | 107° |
| 2026-05-04 05:07 | 40.29455 | 52.42249 | 32985 ft | 515 kts | 106° |
| 2026-05-04 05:09 | 40.21892 | 52.81589 | 32989 ft | 516 kts | 106° |
| 2026-05-04 05:10 | 40.20123 | 52.90714 | 32990 ft | 518 kts | 107° |
| 2026-05-04 05:10 | 40.18340 | 52.99868 | 32993 ft | 519 kts | 106° |
| 2026-05-04 05:11 | 40.16548 | 53.09026 | 32970 ft | 520 kts | 106° |
| 2026-05-04 05:11 | 40.14746 | 53.18192 | 32983 ft | 520 kts | 106° |
| 2026-05-04 05:12 | 40.12950 | 53.27287 | 32989 ft | 521 kts | 107° |
| 2026-05-04 05:12 | 40.11120 | 53.36515 | 32980 ft | 521 kts | 107° |
| 2026-05-04 05:13 | 40.09304 | 53.45629 | 32972 ft | 521 kts | 107° |
| 2026-05-04 05:13 | 40.07468 | 53.54800 | 32976 ft | 522 kts | 106° |
| 2026-05-04 05:14 | 40.05624 | 53.63975 | 32978 ft | 523 kts | 106° |
| 2026-05-04 05:14 | 40.03769 | 53.73159 | 32977 ft | 524 kts | 107° |
| 2026-05-04 05:15 | 40.01905 | 53.82350 | 32969 ft | 524 kts | 107° |
| 2026-05-04 05:15 | 40.00031 | 53.91548 | 32974 ft | 525 kts | 107° |
| 2026-05-04 05:16 | 39.98144 | 54.00766 | 32970 ft | 526 kts | 107° |
| 2026-05-04 05:16 | 39.96262 | 54.09925 | 32985 ft | 526 kts | 107° |